sensor_id;sensor_type;location;lat;lon;timestamp;pressure;altitude;pressure_sealevel;temperature
27826;BMP280;15077;49.704;9.908;2023-03-23T00:01:02;97466.97;;;17.70
27826;BMP280;15077;49.704;9.908;2023-03-23T00:03:28;97462.66;;;17.70
27826;BMP280;15077;49.704;9.908;2023-03-23T00:06:00;97454.03;;;17.71
27826;BMP280;15077;49.704;9.908;2023-03-23T00:08:38;97453.91;;;17.73
27826;BMP280;15077;49.704;9.908;2023-03-23T00:11:16;97453.09;;;17.72
27826;BMP280;15077;49.704;9.908;2023-03-23T00:13:45;97455.66;;;17.72
27826;BMP280;15077;49.704;9.908;2023-03-23T00:16:17;97458.22;;;17.72
27826;BMP280;15077;49.704;9.908;2023-03-23T00:21:11;97453.91;;;17.73
27826;BMP280;15077;49.704;9.908;2023-03-23T00:23:37;97455.66;;;17.72
27826;BMP280;15077;49.704;9.908;2023-03-23T00:26:04;97453.78;;;17.74
27826;BMP280;15077;49.704;9.908;2023-03-23T00:28:29;97453.09;;;17.72
27826;BMP280;15077;49.704;9.908;2023-03-23T00:31:07;97455.66;;;17.72
27826;BMP280;15077;49.704;9.908;2023-03-23T00:33:36;97455.66;;;17.72
27826;BMP280;15077;49.704;9.908;2023-03-23T00:36:11;97464.16;;;17.73
27826;BMP280;15077;49.704;9.908;2023-03-23T00:38:39;97451.59;;;17.70
27826;BMP280;15077;49.704;9.908;2023-03-23T00:41:06;97456.59;;;17.71
27826;BMP280;15077;49.704;9.908;2023-03-23T00:43:33;97449.63;;;17.73
27826;BMP280;15077;49.704;9.908;2023-03-23T00:46:02;97452.97;;;17.74
27826;BMP280;15077;49.704;9.908;2023-03-23T00:48:34;97445.28;;;17.74
27826;BMP280;15077;49.704;9.908;2023-03-23T00:51:02;97446.81;;;17.76
27826;BMP280;15077;49.704;9.908;2023-03-23T00:53:32;97451.94;;;17.76
27826;BMP280;15077;49.704;9.908;2023-03-23T00:55:58;97446.69;;;17.78
27826;BMP280;15077;49.704;9.908;2023-03-23T00:58:24;97439.81;;;17.78
27826;BMP280;15077;49.704;9.908;2023-03-23T01:00:50;97432.81;;;17.80
27826;BMP280;15077;49.704;9.908;2023-03-23T01:03:16;97434.44;;;17.81
27826;BMP280;15077;49.704;9.908;2023-03-23T01:05:44;97428.38;;;17.82
27826;BMP280;15077;49.704;9.908;2023-03-23T01:08:13;97430.00;;;17.83
27826;BMP280;15077;49.704;9.908;2023-03-23T01:10:41;97432.31;;;17.86
27826;BMP280;15077;49.704;9.908;2023-03-23T01:13:07;97423.00;;;17.85
27826;BMP280;15077;49.704;9.908;2023-03-23T01:15:34;97415.31;;;17.85
27826;BMP280;15077;49.704;9.908;2023-03-23T01:18:01;97417.06;;;17.85
27826;BMP280;15077;49.704;9.908;2023-03-23T01:20:28;97408.56;;;17.84
27826;BMP280;15077;49.704;9.908;2023-03-23T01:22:58;97409.38;;;17.85
27826;BMP280;15077;49.704;9.908;2023-03-23T01:25:32;97406.00;;;17.84
27826;BMP280;15077;49.704;9.908;2023-03-23T01:27:58;97400.31;;;17.81
27826;BMP280;15077;49.704;9.908;2023-03-23T01:30:25;97398.56;;;17.81
27826;BMP280;15077;49.704;9.908;2023-03-23T01:32:52;97383.41;;;17.78
27826;BMP280;15077;49.704;9.908;2023-03-23T01:35:18;97392.03;;;17.77
27826;BMP280;15077;49.704;9.908;2023-03-23T01:37:45;97386.91;;;17.77
27826;BMP280;15077;49.704;9.908;2023-03-23T01:40:14;97381.09;;;17.75
27826;BMP280;15077;49.704;9.908;2023-03-23T01:42:40;97380.41;;;17.73
27826;BMP280;15077;49.704;9.908;2023-03-23T01:48:13;97367.84;;;17.70
27826;BMP280;15077;49.704;9.908;2023-03-23T01:51:07;97358.22;;;17.63
27826;BMP280;15077;49.704;9.908;2023-03-23T01:53:49;97357.38;;;17.62
27826;BMP280;15077;49.704;9.908;2023-03-23T01:56:21;97352.50;;;17.59
27826;BMP280;15077;49.704;9.908;2023-03-23T01:58:52;97358.59;;;17.58
27826;BMP280;15077;49.704;9.908;2023-03-23T02:01:20;97355.19;;;17.58
27826;BMP280;15077;49.704;9.908;2023-03-23T02:03:55;97358.81;;;17.55
27826;BMP280;15077;49.704;9.908;2023-03-23T02:06:22;97368.38;;;17.53
27826;BMP280;15077;49.704;9.908;2023-03-23T02:08:50;97360.91;;;17.50
27826;BMP280;15077;49.704;9.908;2023-03-23T02:11:20;97356.97;;;17.47
27826;BMP280;15077;49.704;9.908;2023-03-23T02:13:48;97352.06;;;17.44
27826;BMP280;15077;49.704;9.908;2023-03-23T02:16:57;97365.84;;;17.43
27826;BMP280;15077;49.704;9.908;2023-03-23T02:34:12;97351.66;;;17.17
27826;BMP280;15077;49.704;9.908;2023-03-23T02:36:51;97343.97;;;17.17
27826;BMP280;15077;49.704;9.908;2023-03-23T02:42:04;97339.94;;;17.14
27826;BMP280;15077;49.704;9.908;2023-03-23T02:44:33;97330.50;;;17.15
27826;BMP280;15077;49.704;9.908;2023-03-23T02:47:05;97326.06;;;17.17
27826;BMP280;15077;49.704;9.908;2023-03-23T02:49:34;97333.06;;;17.04
27826;BMP280;15077;49.704;9.908;2023-03-23T02:52:09;97334.81;;;17.14
27826;BMP280;15077;49.704;9.908;2023-03-23T02:54:40;97325.38;;;17.15
27826;BMP280;15077;49.704;9.908;2023-03-23T02:57:08;97332.13;;;17.16
27826;BMP280;15077;49.704;9.908;2023-03-23T02:59:34;97335.59;;;17.15
27826;BMP280;15077;49.704;9.908;2023-03-23T03:02:24;97325.38;;;17.15
27826;BMP280;15077;49.704;9.908;2023-03-23T03:13:50;97328.88;;;17.03
27826;BMP280;15077;49.704;9.908;2023-03-23T03:19:31;97340.84;;;17.02
27826;BMP280;15077;49.704;9.908;2023-03-23T03:21:59;97342.00;;;17.09
27826;BMP280;15077;49.704;9.908;2023-03-23T03:24:29;97338.41;;;17.12
27826;BMP280;15077;49.704;9.908;2023-03-23T03:26:59;97338.28;;;17.13
27826;BMP280;15077;49.704;9.908;2023-03-23T03:29:32;97333.97;;;17.14
27826;BMP280;15077;49.704;9.908;2023-03-23T03:32:02;97329.69;;;17.14
27826;BMP280;15077;49.704;9.908;2023-03-23T03:34:33;97325.38;;;17.15
27826;BMP280;15077;49.704;9.908;2023-03-23T03:36:59;97316.75;;;17.16
27826;BMP280;15077;49.704;9.908;2023-03-23T03:39:27;97321.75;;;17.17
27826;BMP280;15077;49.704;9.908;2023-03-23T03:41:54;97320.69;;;17.20
27826;BMP280;15077;49.704;9.908;2023-03-23T03:44:20;97314.69;;;17.21
27826;BMP280;15077;49.704;9.908;2023-03-23T03:46:46;97313.63;;;17.23
27826;BMP280;15077;49.704;9.908;2023-03-23T03:49:13;97325.47;;;17.24
27826;BMP280;15077;49.704;9.908;2023-03-23T03:51:40;97310.94;;;17.25
27826;BMP280;15077;49.704;9.908;2023-03-23T03:54:06;97310.94;;;17.25
27826;BMP280;15077;49.704;9.908;2023-03-23T03:56:33;97301.50;;;17.25
27826;BMP280;15077;49.704;9.908;2023-03-23T03:59:02;97313.38;;;17.26
27826;BMP280;15077;49.704;9.908;2023-03-23T04:01:29;97310.00;;;17.26
27826;BMP280;15077;49.704;9.908;2023-03-23T04:03:54;97315.94;;;17.26
27826;BMP280;15077;49.704;9.908;2023-03-23T04:06:21;97315.84;;;17.28
27826;BMP280;15077;49.704;9.908;2023-03-23T04:08:47;97322.00;;;17.25
27826;BMP280;15077;49.704;9.908;2023-03-23T04:11:14;97312.78;;;17.23
27826;BMP280;15077;49.704;9.908;2023-03-23T04:13:43;97318.13;;;17.20
27826;BMP280;15077;49.704;9.908;2023-03-23T04:16:11;97318.38;;;17.17
27826;BMP280;15077;49.704;9.908;2023-03-23T04:18:37;97315.13;;;17.15
27826;BMP280;15077;49.704;9.908;2023-03-23T04:21:05;97326.16;;;17.15
27826;BMP280;15077;49.704;9.908;2023-03-23T04:23:34;97328.84;;;17.14
27826;BMP280;15077;49.704;9.908;2023-03-23T04:26:02;97328.84;;;17.14
27826;BMP280;15077;49.704;9.908;2023-03-23T04:28:29;97325.59;;;17.12
27826;BMP280;15077;49.704;9.908;2023-03-23T04:30:57;97324.81;;;17.11
27826;BMP280;15077;49.704;9.908;2023-03-23T04:33:29;97324.09;;;17.09
27826;BMP280;15077;49.704;9.908;2023-03-23T04:35:59;97323.03;;;17.12
27826;BMP280;15077;49.704;9.908;2023-03-23T04:38:27;97323.84;;;17.12
27826;BMP280;15077;49.704;9.908;2023-03-23T04:40:55;97316.88;;;17.14
27826;BMP280;15077;49.704;9.908;2023-03-23T04:43:23;97320.00;;;17.18
27826;BMP280;15077;49.704;9.908;2023-03-23T04:45:58;97315.56;;;17.20
27826;BMP280;15077;49.704;9.908;2023-03-23T04:48:29;97318.88;;;17.22
27826;BMP280;15077;49.704;9.908;2023-03-23T04:51:02;97316.19;;;17.23
27826;BMP280;15077;49.704;9.908;2023-03-23T04:53:31;97308.28;;;17.26
27826;BMP280;15077;49.704;9.908;2023-03-23T04:55:57;97314.19;;;17.27
27826;BMP280;15077;49.704;9.908;2023-03-23T04:58:23;97319.06;;;17.30
27826;BMP280;15077;49.704;9.908;2023-03-23T05:00:50;97315.59;;;17.31
27826;BMP280;15077;49.704;9.908;2023-03-23T05:03:20;97315.59;;;17.31
27826;BMP280;15077;49.704;9.908;2023-03-23T05:05:47;97317.31;;;17.30
27826;BMP280;15077;49.704;9.908;2023-03-23T05:08:21;97330.00;;;17.32
27826;BMP280;15077;49.704;9.908;2023-03-23T05:10:58;97321.50;;;17.31
27826;BMP280;15077;49.704;9.908;2023-03-23T05:13:27;97314.75;;;17.30
27826;BMP280;15077;49.704;9.908;2023-03-23T05:15:53;97315.47;;;17.32
27826;BMP280;15077;49.704;9.908;2023-03-23T05:18:19;97321.28;;;17.34
27826;BMP280;15077;49.704;9.908;2023-03-23T05:20:46;97330.59;;;17.35
27826;BMP280;15077;49.704;9.908;2023-03-23T05:23:12;97338.16;;;17.37
27826;BMP280;15077;49.704;9.908;2023-03-23T05:25:39;97338.97;;;17.37
27826;BMP280;15077;49.704;9.908;2023-03-23T05:28:11;97327.91;;;17.37
27826;BMP280;15077;49.704;9.908;2023-03-23T05:30:38;97338.53;;;17.21
27826;BMP280;15077;49.704;9.908;2023-03-23T05:33:05;97325.94;;;17.29
27826;BMP280;15077;49.704;9.908;2023-03-23T05:35:31;97325.00;;;17.30
27826;BMP280;15077;49.704;9.908;2023-03-23T05:37:57;97331.75;;;17.31
27826;BMP280;15077;49.704;9.908;2023-03-23T05:40:23;97320.72;;;17.31
27826;BMP280;15077;49.704;9.908;2023-03-23T05:42:51;97326.50;;;17.33
27826;BMP280;15077;49.704;9.908;2023-03-23T05:45:17;97334.19;;;17.33
27826;BMP280;15077;49.704;9.908;2023-03-23T05:47:44;97335.84;;;17.34
27826;BMP280;15077;49.704;9.908;2023-03-23T05:50:10;97343.41;;;17.35
27826;BMP280;15077;49.704;9.908;2023-03-23T05:52:37;97347.19;;;17.41
27826;BMP280;15077;49.704;9.908;2023-03-23T05:55:04;97352.31;;;17.41
27826;BMP280;15077;49.704;9.908;2023-03-23T05:57:32;97355.13;;;17.38
27826;BMP280;15077;49.704;9.908;2023-03-23T05:59:57;97362.81;;;17.38
27826;BMP280;15077;49.704;9.908;2023-03-23T06:02:24;97362.13;;;17.36
27826;BMP280;15077;49.704;9.908;2023-03-23T06:04:53;97362.25;;;17.34
27826;BMP280;15077;49.704;9.908;2023-03-23T06:07:24;97366.56;;;17.34
27826;BMP280;15077;49.704;9.908;2023-03-23T06:09:51;97368.78;;;17.38
27826;BMP280;15077;49.704;9.908;2023-03-23T06:12:17;97380.75;;;17.38
27826;BMP280;15077;49.704;9.908;2023-03-23T06:14:46;97375.75;;;17.36
27826;BMP280;15077;49.704;9.908;2023-03-23T06:17:15;97384.38;;;17.35
27826;BMP280;15077;49.704;9.908;2023-03-23T06:19:41;97378.66;;;17.32
27826;BMP280;15077;49.704;9.908;2023-03-23T06:22:07;97377.84;;;17.31
27826;BMP280;15077;49.704;9.908;2023-03-23T06:24:33;97377.28;;;17.28
27826;BMP280;15077;49.704;9.908;2023-03-23T06:26:59;97379.13;;;17.26
27826;BMP280;15077;49.704;9.908;2023-03-23T06:29:25;97375.88;;;17.24
27826;BMP280;15077;49.704;9.908;2023-03-23T06:31:56;97376.00;;;17.22
27826;BMP280;15077;49.704;9.908;2023-03-23T06:34:23;97376.34;;;17.18
27826;BMP280;15077;49.704;9.908;2023-03-23T06:36:49;97379.81;;;17.17
27826;BMP280;15077;49.704;9.908;2023-03-23T06:39:14;97379.81;;;17.17
27826;BMP280;15077;49.704;9.908;2023-03-23T06:41:41;97375.66;;;17.16
27826;BMP280;15077;49.704;9.908;2023-03-23T06:44:07;97385.53;;;17.20
27826;BMP280;15077;49.704;9.908;2023-03-23T06:46:34;97386.38;;;17.21
27826;BMP280;15077;49.704;9.908;2023-03-23T06:49:00;97392.31;;;17.21
27826;BMP280;15077;49.704;9.908;2023-03-23T06:51:26;97393.81;;;17.24
27826;BMP280;15077;49.704;9.908;2023-03-23T06:53:52;97381.81;;;17.24
27826;BMP280;15077;49.704;9.908;2023-03-23T06:56:18;97388.47;;;17.27
27826;BMP280;15077;49.704;9.908;2023-03-23T06:58:43;97387.53;;;17.28
27826;BMP280;15077;49.704;9.908;2023-03-23T07:01:11;97395.91;;;17.30
27826;BMP280;15077;49.704;9.908;2023-03-23T07:03:38;97399.16;;;17.32
27826;BMP280;15077;49.704;9.908;2023-03-23T07:06:07;97396.47;;;17.33
27826;BMP280;15077;49.704;9.908;2023-03-23T07:08:33;97398.91;;;17.35
27826;BMP280;15077;49.704;9.908;2023-03-23T07:10:59;97403.00;;;17.37
27826;BMP280;15077;49.704;9.908;2023-03-23T07:13:25;97398.66;;;17.38
27826;BMP280;15077;49.704;9.908;2023-03-23T07:15:52;97400.31;;;17.39
27826;BMP280;15077;49.704;9.908;2023-03-23T07:18:18;97412.19;;;17.40
27826;BMP280;15077;49.704;9.908;2023-03-23T07:20:48;97407.88;;;17.40
27826;BMP280;15077;49.704;9.908;2023-03-23T07:23:14;97408.69;;;17.41
27826;BMP280;15077;49.704;9.908;2023-03-23T07:25:41;97409.38;;;17.43
27826;BMP280;15077;49.704;9.908;2023-03-23T07:28:06;97410.06;;;17.45
27826;BMP280;15077;49.704;9.908;2023-03-23T07:30:33;97411.72;;;17.46
27826;BMP280;15077;49.704;9.908;2023-03-23T07:32:58;97417.63;;;17.46
27826;BMP280;15077;49.704;9.908;2023-03-23T07:35:25;97409.16;;;17.46
27826;BMP280;15077;49.704;9.908;2023-03-23T07:37:51;97417.53;;;17.48
27826;BMP280;15077;49.704;9.908;2023-03-23T07:40:18;97420.09;;;17.48
27826;BMP280;15077;49.704;9.908;2023-03-23T07:42:51;97421.72;;;17.49
27826;BMP280;15077;49.704;9.908;2023-03-23T07:45:17;97416.59;;;17.49
27826;BMP280;15077;49.704;9.908;2023-03-23T07:47:43;97414.03;;;17.49
27826;BMP280;15077;49.704;9.908;2023-03-23T07:50:09;97419.03;;;17.50
27826;BMP280;15077;49.704;9.908;2023-03-23T07:52:36;97431.47;;;17.54
27826;BMP280;15077;49.704;9.908;2023-03-23T07:55:05;97424.47;;;17.56
27826;BMP280;15077;49.704;9.908;2023-03-23T07:57:31;97430.19;;;17.60
27826;BMP280;15077;49.704;9.908;2023-03-23T07:59:58;97440.22;;;17.63
27826;BMP280;15077;49.704;9.908;2023-03-23T08:02:25;97436.44;;;17.67
27826;BMP280;15077;49.704;9.908;2023-03-23T08:04:52;97439.72;;;17.69
27826;BMP280;15077;49.704;9.908;2023-03-23T08:07:19;97443.78;;;17.71
27826;BMP280;15077;49.704;9.908;2023-03-23T08:09:47;97438.41;;;17.74
27826;BMP280;15077;49.704;9.908;2023-03-23T08:12:13;97439.13;;;17.76
27826;BMP280;15077;49.704;9.908;2023-03-23T08:14:39;97452.50;;;17.80
27826;BMP280;15077;49.704;9.908;2023-03-23T08:17:07;97451.56;;;17.81
27826;BMP280;15077;49.704;9.908;2023-03-23T08:19:35;97465.19;;;17.81
27826;BMP280;15077;49.704;9.908;2023-03-23T08:22:03;97468.44;;;17.83
27826;BMP280;15077;49.704;9.908;2023-03-23T08:24:31;97466.84;;;17.82
27826;BMP280;15077;49.704;9.908;2023-03-23T08:26:59;97469.28;;;17.84
27826;BMP280;15077;49.704;9.908;2023-03-23T08:29:25;97474.28;;;17.85
27826;BMP280;15077;49.704;9.908;2023-03-23T08:31:52;97478.44;;;17.86
27826;BMP280;15077;49.704;9.908;2023-03-23T08:34:18;97477.53;;;17.87
27826;BMP280;15077;49.704;9.908;2023-03-23T08:36:43;97488.72;;;17.86
27826;BMP280;15077;49.704;9.908;2023-03-23T08:39:12;97495.47;;;17.87
27826;BMP280;15077;49.704;9.908;2023-03-23T08:41:40;97489.53;;;17.87
27826;BMP280;15077;49.704;9.908;2023-03-23T08:44:06;97497.34;;;17.85
27826;BMP280;15077;49.704;9.908;2023-03-23T08:46:33;97499.19;;;17.83
27826;BMP280;15077;49.704;9.908;2023-03-23T08:49:00;97491.63;;;17.82
27826;BMP280;15077;49.704;9.908;2023-03-23T08:51:25;97503.75;;;17.80
27826;BMP280;15077;49.704;9.908;2023-03-23T08:53:51;97501.31;;;17.78
27826;BMP280;15077;49.704;9.908;2023-03-23T08:56:18;97501.88;;;17.82
27826;BMP280;15077;49.704;9.908;2023-03-23T08:58:44;97499.44;;;17.80
27826;BMP280;15077;49.704;9.908;2023-03-23T09:01:10;97516.47;;;17.81
27826;BMP280;15077;49.704;9.908;2023-03-23T09:03:36;97508.78;;;17.81
27826;BMP280;15077;49.704;9.908;2023-03-23T09:06:05;97496.19;;;17.78
27826;BMP280;15077;49.704;9.908;2023-03-23T09:08:32;97494.56;;;17.77
27826;BMP280;15077;49.704;9.908;2023-03-23T09:10:59;97498.88;;;17.77
27826;BMP280;15077;49.704;9.908;2023-03-23T09:13:25;97502.47;;;17.74
27826;BMP280;15077;49.704;9.908;2023-03-23T09:15:52;97510.41;;;17.71
27826;BMP280;15077;49.704;9.908;2023-03-23T09:18:18;97518.34;;;17.68
27826;BMP280;15077;49.704;9.908;2023-03-23T09:20:45;97529.66;;;17.66
27826;BMP280;15077;49.704;9.908;2023-03-23T09:23:12;97527.44;;;17.61
27826;BMP280;15077;49.704;9.908;2023-03-23T09:25:39;97525.94;;;17.59
27826;BMP280;15077;49.704;9.908;2023-03-23T09:28:05;97536.41;;;17.56
27826;BMP280;15077;49.704;9.908;2023-03-23T09:30:33;97540.13;;;17.52
27826;BMP280;15077;49.704;9.908;2023-03-23T09:33:02;97529.31;;;17.49
27826;BMP280;15077;49.704;9.908;2023-03-23T09:35:30;97528.47;;;17.48
27826;BMP280;15077;49.704;9.908;2023-03-23T09:37:57;97539.56;;;17.49
27826;BMP280;15077;49.704;9.908;2023-03-23T09:40:55;97540.50;;;17.48
27826;BMP280;15077;49.704;9.908;2023-03-23T09:43:46;97532.56;;;17.50
27826;BMP280;15077;49.704;9.908;2023-03-23T09:49:36;97536.53;;;17.54
27826;BMP280;15077;49.704;9.908;2023-03-23T09:52:10;97538.19;;;17.55
27826;BMP280;15077;49.704;9.908;2023-03-23T09:54:47;97550.53;;;17.61
27826;BMP280;15077;49.704;9.908;2023-03-23T09:57:40;97547.25;;;17.59
27826;BMP280;15077;49.704;9.908;2023-03-23T10:00:24;97553.31;;;17.58
27826;BMP280;15077;49.704;9.908;2023-03-23T10:03:14;97544.94;;;17.46
27826;BMP280;15077;49.704;9.908;2023-03-23T10:08:21;97558.66;;;17.66
27826;BMP280;15077;49.704;9.908;2023-03-23T10:11:10;97555.16;;;17.67
27826;BMP280;15077;49.704;9.908;2023-03-23T10:16:14;97561.19;;;17.77
27826;BMP280;15077;49.704;9.908;2023-03-23T10:19:05;97563.63;;;17.79
27826;BMP280;15077;49.704;9.908;2023-03-23T10:21:40;97568.53;;;17.82
27826;BMP280;15077;49.704;9.908;2023-03-23T10:24:16;97575.75;;;17.88
27826;BMP280;15077;49.704;9.908;2023-03-23T10:27:26;97583.78;;;17.83
27826;BMP280;15077;49.704;9.908;2023-03-23T10:35:55;97565.25;;;17.91
27826;BMP280;15077;49.704;9.908;2023-03-23T10:38:41;97562.13;;;17.87
27826;BMP280;15077;49.704;9.908;2023-03-23T10:41:16;97560.00;;;17.92
27826;BMP280;15077;49.704;9.908;2023-03-23T10:43:45;97554.63;;;17.95
27826;BMP280;15077;49.704;9.908;2023-03-23T10:46:44;97549.41;;;17.97
27826;BMP280;15077;49.704;9.908;2023-03-23T10:52:34;97553.00;;;18.05
27826;BMP280;15077;49.704;9.908;2023-03-23T10:55:17;97556.16;;;18.08
27826;BMP280;15077;49.704;9.908;2023-03-23T10:58:13;97561.16;;;18.10
27826;BMP280;15077;49.704;9.908;2023-03-23T11:00:47;97557.91;;;18.19
27826;BMP280;15077;49.704;9.908;2023-03-23T11:09:10;97557.44;;;18.25
27826;BMP280;15077;49.704;9.908;2023-03-23T11:11:40;97562.06;;;18.31
27826;BMP280;15077;49.704;9.908;2023-03-23T11:16:50;97565.31;;;18.33
27826;BMP280;15077;49.704;9.908;2023-03-23T11:19:26;97550.59;;;18.35
27826;BMP280;15077;49.704;9.908;2023-03-23T11:21:58;97556.44;;;18.37
27826;BMP280;15077;49.704;9.908;2023-03-23T11:24:29;97561.34;;;18.40
27826;BMP280;15077;49.704;9.908;2023-03-23T11:26:57;97549.19;;;18.42
27826;BMP280;15077;49.704;9.908;2023-03-23T11:29:28;97550.34;;;18.48
27826;BMP280;15077;49.704;9.908;2023-03-23T11:34:47;97550.22;;;18.50
27826;BMP280;15077;49.704;9.908;2023-03-23T11:40:31;97563.59;;;18.53
27826;BMP280;15077;49.704;9.908;2023-03-23T11:43:14;97563.59;;;18.53
27826;BMP280;15077;49.704;9.908;2023-03-23T11:46:20;97556.16;;;18.50
27826;BMP280;15077;49.704;9.908;2023-03-23T11:49:22;97553.22;;;18.55
27826;BMP280;15077;49.704;9.908;2023-03-23T11:52:01;97566.81;;;18.66
27826;BMP280;15077;49.704;9.908;2023-03-23T11:54:38;97559.81;;;18.68
27826;BMP280;15077;49.704;9.908;2023-03-23T11:57:10;97554.41;;;18.71
27826;BMP280;15077;49.704;9.908;2023-03-23T11:59:38;97570.66;;;18.72
27826;BMP280;15077;49.704;9.908;2023-03-23T12:02:42;97562.97;;;18.72
27826;BMP280;15077;49.704;9.908;2023-03-23T12:11:13;97552.31;;;18.76
27826;BMP280;15077;49.704;9.908;2023-03-23T12:28:21;97546.59;;;18.73
27826;BMP280;15077;49.704;9.908;2023-03-23T12:33:55;97549.41;;;18.70
27826;BMP280;15077;49.704;9.908;2023-03-23T12:44:53;97550.66;;;18.55
27826;BMP280;15077;49.704;9.908;2023-03-23T12:53:08;97557.81;;;18.41
27826;BMP280;15077;49.704;9.908;2023-03-23T12:55:45;97548.25;;;18.43
27826;BMP280;15077;49.704;9.908;2023-03-23T12:58:24;97538.00;;;18.43
27826;BMP280;15077;49.704;9.908;2023-03-23T13:01:10;97527.63;;;18.44
27826;BMP280;15077;49.704;9.908;2023-03-23T13:06:41;97521.97;;;18.50
27826;BMP280;15077;49.704;9.908;2023-03-23T13:09:45;97500.91;;;18.47
27826;BMP280;15077;49.704;9.908;2023-03-23T13:12:14;97497.13;;;18.50
27826;BMP280;15077;49.704;9.908;2023-03-23T13:15:10;97514.03;;;18.53
27826;BMP280;15077;49.704;9.908;2023-03-23T13:18:12;97500.41;;;18.52
27826;BMP280;15077;49.704;9.908;2023-03-23T13:21:02;97491.75;;;18.53
27826;BMP280;15077;49.704;9.908;2023-03-23T13:23:50;97501.09;;;18.54
27826;BMP280;15077;49.704;9.908;2023-03-23T13:26:22;97488.00;;;18.57
27826;BMP280;15077;49.704;9.908;2023-03-23T13:31:29;97493.56;;;18.62
27826;BMP280;15077;49.704;9.908;2023-03-23T13:37:10;97473.28;;;18.59
27826;BMP280;15077;49.704;9.908;2023-03-23T13:40:11;97492.75;;;18.62
27826;BMP280;15077;49.704;9.908;2023-03-23T13:42:52;97503.19;;;18.70
27826;BMP280;15077;49.704;9.908;2023-03-23T13:50:59;97486.25;;;18.78
27826;BMP280;15077;49.704;9.908;2023-03-23T13:53:43;97486.00;;;18.81
27826;BMP280;15077;49.704;9.908;2023-03-23T13:56:20;97470.59;;;18.81
27826;BMP280;15077;49.704;9.908;2023-03-23T13:58:51;97473.16;;;18.81
27826;BMP280;15077;49.704;9.908;2023-03-23T14:01:36;97470.59;;;18.81
27826;BMP280;15077;49.704;9.908;2023-03-23T14:04:09;97471.66;;;18.79
27826;BMP280;15077;49.704;9.908;2023-03-23T14:06:36;97476.78;;;18.79
27826;BMP280;15077;49.704;9.908;2023-03-23T14:09:32;97479.97;;;18.71
27826;BMP280;15077;49.704;9.908;2023-03-23T14:12:16;97485.09;;;18.71
27826;BMP280;15077;49.704;9.908;2023-03-23T14:14:50;97487.56;;;18.73
27826;BMP280;15077;49.704;9.908;2023-03-23T14:17:26;97484.19;;;18.72
27826;BMP280;15077;49.704;9.908;2023-03-23T14:19:55;97482.28;;;18.74
27826;BMP280;15077;49.704;9.908;2023-03-23T14:22:34;97480.69;;;18.73
27826;BMP280;15077;49.704;9.908;2023-03-23T14:25:11;97480.81;;;18.72
27826;BMP280;15077;49.704;9.908;2023-03-23T14:27:38;97471.59;;;18.69
27826;BMP280;15077;49.704;9.908;2023-03-23T14:30:18;97472.41;;;18.70
27826;BMP280;15077;49.704;9.908;2023-03-23T14:32:44;97476.97;;;18.66
27826;BMP280;15077;49.704;9.908;2023-03-23T14:35:33;97474.00;;;18.61
27826;BMP280;15077;49.704;9.908;2023-03-23T14:37:59;97483.41;;;18.61
27826;BMP280;15077;49.704;9.908;2023-03-23T14:40:30;97492.63;;;18.63
27826;BMP280;15077;49.704;9.908;2023-03-23T14:42:57;97488.56;;;18.61
27826;BMP280;15077;49.704;9.908;2023-03-23T14:45:24;97495.56;;;18.59
27826;BMP280;15077;49.704;9.908;2023-03-23T14:48:02;97500.72;;;18.59
27826;BMP280;15077;49.704;9.908;2023-03-23T14:50:42;97505.84;;;18.59
27826;BMP280;15077;49.704;9.908;2023-03-23T14:53:28;97505.28;;;18.55
27826;BMP280;15077;49.704;9.908;2023-03-23T14:55:58;97505.28;;;18.55
27826;BMP280;15077;49.704;9.908;2023-03-23T14:58:24;97509.47;;;18.56
27826;BMP280;15077;49.704;9.908;2023-03-23T15:01:08;97506.22;;;18.54
27826;BMP280;15077;49.704;9.908;2023-03-23T15:03:44;97497.84;;;18.52
27826;BMP280;15077;49.704;9.908;2023-03-23T15:06:18;97497.13;;;18.50
27826;BMP280;15077;49.704;9.908;2023-03-23T15:08:49;97497.00;;;18.52
27826;BMP280;15077;49.704;9.908;2023-03-23T15:14:49;97498.09;;;18.49
27826;BMP280;15077;49.704;9.908;2023-03-23T15:16:58;97498.50;;;18.54
27826;BMP280;15077;49.704;9.908;2023-03-23T15:19:40;97498.25;;;18.57
27826;BMP280;15077;49.704;9.908;2023-03-23T15:24:42;97492.47;;;18.55
27826;BMP280;15077;49.704;9.908;2023-03-23T15:27:29;97496.50;;;18.58
27826;BMP280;15077;49.704;9.908;2023-03-23T15:29:58;97506.41;;;18.62
27826;BMP280;15077;49.704;9.908;2023-03-23T15:32:38;97505.47;;;18.63
27826;BMP280;15077;49.704;9.908;2023-03-23T15:35:14;97511.41;;;18.64
27826;BMP280;15077;49.704;9.908;2023-03-23T15:37:51;97504.53;;;18.64
27826;BMP280;15077;49.704;9.908;2023-03-23T15:40:22;97508.59;;;18.67
27826;BMP280;15077;49.704;9.908;2023-03-23T15:42:50;97514.56;;;18.67
27826;BMP280;15077;49.704;9.908;2023-03-23T15:45:27;97504.28;;;18.67
27826;BMP280;15077;49.704;9.908;2023-03-23T15:47:54;97510.34;;;18.66
27826;BMP280;15077;49.704;9.908;2023-03-23T15:52:52;97504.16;;;18.69
27826;BMP280;15077;49.704;9.908;2023-03-23T15:55:27;97504.03;;;18.70
27826;BMP280;15077;49.704;9.908;2023-03-23T15:57:56;97493.66;;;18.72
27826;BMP280;15077;49.704;9.908;2023-03-23T16:00:26;97491.88;;;18.72
27826;BMP280;15077;49.704;9.908;2023-03-23T16:03:01;97493.53;;;18.73
27826;BMP280;15077;49.704;9.908;2023-03-23T16:05:29;97486.50;;;18.75
27826;BMP280;15077;49.704;9.908;2023-03-23T16:07:55;97488.94;;;18.77
27826;BMP280;15077;49.704;9.908;2023-03-23T16:10:23;97493.16;;;18.78
27826;BMP280;15077;49.704;9.908;2023-03-23T16:12:49;97482.16;;;18.76
27826;BMP280;15077;49.704;9.908;2023-03-23T16:15:16;97490.00;;;18.74
27826;BMP280;15077;49.704;9.908;2023-03-23T16:17:42;97485.94;;;18.72
27826;BMP280;15077;49.704;9.908;2023-03-23T16:20:15;97482.53;;;18.71
27826;BMP280;15077;49.704;9.908;2023-03-23T16:22:41;97489.69;;;18.68
27826;BMP280;15077;49.704;9.908;2023-03-23T16:25:08;97482.91;;;18.67
27826;BMP280;15077;49.704;9.908;2023-03-23T16:27:35;97473.75;;;18.64
27826;BMP280;15077;49.704;9.908;2023-03-23T16:30:20;97472.09;;;18.63
27826;BMP280;15077;49.704;9.908;2023-03-23T16:32:46;97479.81;;;18.63
27826;BMP280;15077;49.704;9.908;2023-03-23T16:35:13;97474.00;;;18.61
27826;BMP280;15077;49.704;9.908;2023-03-23T16:37:48;97484.25;;;18.61
27826;BMP280;15077;49.704;9.908;2023-03-23T16:40:17;97474.13;;;18.60